Time;durP1;ratioP1;P1;durP2;ratioP2;P2;SDS_P1;SDS_P2;PMS_P1;PMS_P2;Temp;Humidity;BMP_temperature;BMP_pressure;BME280_temperature;BME280_humidity;BME280_pressure;Samples;Min_cycle;Max_cycle;Signal;HPM_P1;HPM_P2
2023/08/19 00:00:15;;;;;;;2.78;1.80;;;;;;;26.70;34.41;98834.75;4975277;28;20081;-75
2023/08/19 00:02:44;;;;;;;2.47;1.70;;;;;;;26.67;34.18;98824.47;4975593;28;20093;-74
2023/08/19 00:05:10;;;;;;;4.60;1.85;;;;;;;26.61;34.51;98825.31;4974876;28;20080;-74
2023/08/19 00:07:35;;;;;;;3.90;1.67;;;;;;;26.62;34.74;98826.16;4991677;28;20065;-74
2023/08/19 00:10:02;;;;;;;5.72;1.73;;;;;;;26.58;34.76;98828.41;4974161;28;20460;-74
2023/08/19 00:12:27;;;;;;;2.92;1.70;;;;;;;26.50;35.10;98821.50;4974769;28;20142;-74
2023/08/19 00:14:55;;;;;;;5.43;1.70;;;;;;;26.45;35.25;98826.69;4991486;28;20149;-74
2023/08/19 00:17:21;;;;;;;5.22;1.77;;;;;;;26.39;35.42;98822.19;4975320;28;20042;-74
2023/08/19 00:19:47;;;;;;;6.25;1.77;;;;;;;26.34;35.86;98819.34;4990761;28;20040;-74
2023/08/19 00:22:12;;;;;;;8.38;1.75;;;;;;;26.24;35.65;98814.50;4990857;28;20416;-74
2023/08/19 00:24:38;;;;;;;4.57;1.90;;;;;;;26.25;35.88;98818.81;4973276;28;20410;-74
2023/08/19 00:27:03;;;;;;;2.78;1.67;;;;;;;26.20;35.86;98817.81;4974736;28;20034;-74
2023/08/19 00:29:29;;;;;;;1.92;1.50;;;;;;;26.15;35.94;98811.25;4990898;28;20030;-74
2023/08/19 00:31:54;;;;;;;6.70;1.83;;;;;;;26.14;35.87;98808.78;4974825;28;20104;-74
2023/08/19 00:34:20;;;;;;;7.53;1.90;;;;;;;26.17;35.29;98814.56;4991142;28;20042;-74
2023/08/19 00:36:45;;;;;;;8.05;1.80;;;;;;;26.12;35.46;98821.56;4990655;28;20553;-74
2023/08/19 00:39:11;;;;;;;4.65;1.98;;;;;;;26.10;35.37;98810.28;4990200;28;20046;-74
2023/08/19 00:41:37;;;;;;;3.05;1.88;;;;;;;26.12;35.31;98814.34;4973978;28;20042;-74
2023/08/19 00:44:03;;;;;;;4.05;1.70;;;;;;;26.14;35.47;98806.13;4974795;28;20034;-74
2023/08/19 00:46:28;;;;;;;5.53;1.85;;;;;;;26.13;35.17;98807.97;4990700;28;20044;-75
2023/08/19 00:48:54;;;;;;;4.45;1.50;;;;;;;26.14;35.22;98814.97;4990600;28;20038;-75
2023/08/19 00:51:20;;;;;;;5.55;1.67;;;;;;;26.12;35.40;98814.34;4989831;28;20030;-74
2023/08/19 00:53:45;;;;;;;2.83;1.70;;;;;;;26.13;35.29;98818.69;4974965;28;20027;-74
2023/08/19 00:56:11;;;;;;;3.30;1.70;;;;;;;26.13;35.42;98818.69;4990736;28;20035;-75
2023/08/19 00:58:36;;;;;;;4.50;1.73;;;;;;;26.07;35.77;98813.38;4974626;28;20448;-75
2023/08/19 01:01:02;;;;;;;3.30;1.80;;;;;;;26.09;35.58;98822.00;4975123;28;20061;-75
2023/08/19 01:03:27;;;;;;;4.47;1.70;;;;;;;26.10;35.79;98827.13;4991204;28;20413;-75
2023/08/19 01:06:01;;;;;;;2.33;1.60;;;;;;;26.15;35.53;98831.84;4990709;28;20053;-75
2023/08/19 01:08:33;;;;;;;4.35;2.05;;;;;;;26.15;35.42;98829.16;4975459;28;20035;-75
2023/08/19 01:11:22;;;;;;;7.05;1.70;;;;;;;26.14;35.69;98824.84;4975180;28;20608;-75
2023/08/19 01:13:53;;;;;;;2.97;1.52;;;;;;;26.12;35.76;98830.41;4975178;28;20493;-75
2023/08/19 01:16:22;;;;;;;2.95;1.65;;;;;;;26.24;35.93;98853.81;4975758;28;20567;-75
2023/08/19 01:18:48;;;;;;;3.63;1.63;;;;;;;26.27;35.53;98854.19;4974498;28;20057;-75
2023/08/19 01:21:13;;;;;;;3.28;1.92;;;;;;;26.30;35.29;98855.63;4975095;28;20074;-74
2023/08/19 01:23:42;;;;;;;7.00;1.88;;;;;;;26.28;35.47;98863.88;4957806;28;20409;-75
2023/08/19 01:26:07;;;;;;;5.70;1.60;;;;;;;26.25;35.87;98858.97;4975182;28;20040;-74
2023/08/19 01:28:33;;;;;;;2.63;1.48;;;;;;;26.14;35.88;98844.41;4990842;28;20030;-74
2023/08/19 01:30:59;;;;;;;5.50;1.63;;;;;;;26.12;35.83;98854.47;4990894;28;20043;-74
2023/08/19 01:33:24;;;;;;;2.85;1.90;;;;;;;26.06;36.31;98852.69;4990634;28;20046;-74
2023/08/19 01:36:25;;;;;;;4.60;1.52;;;;;;;26.03;36.45;98855.78;4976090;28;20030;-74
2023/08/19 01:38:55;;;;;;;3.75;2.00;;;;;;;26.00;36.48;98864.25;4923329;29;20046;-74
2023/08/19 01:41:22;;;;;;;2.67;1.63;;;;;;;25.89;36.65;98855.00;4922992;29;20043;-74
2023/08/19 01:43:48;;;;;;;4.40;1.80;;;;;;;25.78;37.20;98843.13;4923666;29;20039;-74
2023/08/19 01:46:13;;;;;;;6.13;1.90;;;;;;;25.68;37.51;98844.63;4938509;29;20493;-74
2023/08/19 01:48:39;;;;;;;3.58;1.73;;;;;;;25.65;37.30;98859.25;4923139;29;20043;-74
2023/08/19 01:51:04;;;;;;;3.20;1.45;;;;;;;25.67;37.52;98851.00;4923025;29;20035;-74
2023/08/19 01:53:30;;;;;;;4.03;1.63;;;;;;;25.73;37.06;98855.47;4938993;29;20039;-74
2023/08/19 01:55:55;;;;;;;5.45;1.80;;;;;;;25.69;37.01;98857.78;4938756;29;20043;-75
2023/08/19 01:58:21;;;;;;;2.50;1.88;;;;;;;25.63;37.35;98856.78;4938565;29;20047;-74
2023/08/19 02:00:46;;;;;;;5.95;1.92;;;;;;;25.60;37.39;98846.50;4939076;28;20035;-74
2023/08/19 02:03:12;;;;;;;4.22;1.70;;;;;;;25.59;37.19;98855.56;4954532;29;20043;-74
2023/08/19 02:05:37;;;;;;;3.15;1.80;;;;;;;25.59;36.45;98849.41;4938459;29;20035;-75
2023/08/19 02:08:03;;;;;;;2.97;1.67;;;;;;;25.61;36.61;98844.66;4937909;29;20417;-74
2023/08/19 02:10:28;;;;;;;5.53;1.52;;;;;;;25.61;36.37;98844.66;4938239;29;20122;-75
2023/08/19 02:12:54;;;;;;;3.92;1.88;;;;;;;25.63;36.43;98842.56;4953856;28;20551;-74
2023/08/19 02:15:19;;;;;;;3.47;1.70;;;;;;;25.65;36.35;98843.22;4956858;28;20568;-74
2023/08/19 02:17:45;;;;;;;4.13;1.67;;;;;;;25.67;36.62;98843.00;4994695;28;20038;-75
2023/08/19 02:20:11;;;;;;;2.40;1.42;;;;;;;25.70;36.67;98830.00;4978178;28;20043;-74
2023/08/19 02:22:38;;;;;;;5.45;2.00;;;;;;;25.69;36.21;98824.88;4994390;28;20129;-74
2023/08/19 02:25:04;;;;;;;5.57;1.65;;;;;;;25.68;36.13;98818.72;4978643;28;20121;-74
2023/08/19 02:27:31;;;;;;;3.55;1.85;;;;;;;25.69;36.38;98817.66;4978899;28;20511;-74
2023/08/19 02:29:56;;;;;;;3.40;1.80;;;;;;;25.71;36.30;98818.28;4993875;28;20105;-74
2023/08/19 02:32:22;;;;;;;2.40;1.73;;;;;;;25.74;36.28;98820.53;4978363;28;20496;-74
2023/08/19 02:34:47;;;;;;;3.50;1.58;;;;;;;25.77;36.62;98814.75;4995428;28;20061;-74
2023/08/19 02:37:14;;;;;;;2.97;1.58;;;;;;;25.79;36.43;98815.38;4994334;28;20050;-74
2023/08/19 02:39:40;;;;;;;3.40;2.00;;;;;;;25.81;36.60;98809.81;4995842;28;20022;-74
2023/08/19 02:42:05;;;;;;;2.38;1.92;;;;;;;25.83;36.60;98789.81;4977356;28;20516;-74
2023/08/19 02:44:31;;;;;;;5.25;2.22;;;;;;;25.87;36.71;98800.94;4977764;28;20041;-74
2023/08/19 02:46:56;;;;;;;6.13;2.10;;;;;;;25.92;37.00;98793.06;4961005;28;20038;-74
2023/08/19 02:49:22;;;;;;;4.30;1.90;;;;;;;25.90;36.92;98789.81;4993149;28;20030;-74
2023/08/19 02:51:47;;;;;;;3.47;2.13;;;;;;;25.89;36.98;98779.31;4994516;28;20402;-75
2023/08/19 02:54:13;;;;;;;4.55;2.47;;;;;;;25.94;37.14;98784.84;4977968;28;20034;-74
2023/08/19 02:56:39;;;;;;;3.78;2.03;;;;;;;25.97;36.88;98782.56;4961527;28;20034;-74
2023/08/19 02:59:04;;;;;;;6.70;2.58;;;;;;;25.97;36.79;98771.88;4977521;28;20026;-75
2023/08/19 03:01:30;;;;;;;7.55;2.10;;;;;;;25.99;36.98;98769.81;4961603;28;20034;-74
2023/08/19 03:03:55;;;;;;;3.85;1.80;;;;;;;26.06;36.51;98768.94;4977327;28;20030;-74
2023/08/19 03:06:20;;;;;;;3.80;2.10;;;;;;;26.06;36.81;98768.94;4993456;28;20676;-74
2023/08/19 03:08:46;;;;;;;4.97;2.17;;;;;;;26.09;36.43;98773.84;4977154;28;20402;-73
2023/08/19 03:11:11;;;;;;;7.35;1.92;;;;;;;26.08;36.73;98770.38;4993051;28;20077;-74
2023/08/19 03:13:37;;;;;;;9.50;2.33;;;;;;;26.13;36.47;98780.41;4977729;28;20046;-74
2023/08/19 03:16:04;;;;;;;4.95;2.25;;;;;;;26.20;36.23;98780.38;4961300;28;20041;-74
2023/08/19 03:18:29;;;;;;;2.70;1.98;;;;;;;26.23;36.47;98778.06;4977567;28;20558;-75
2023/08/19 03:20:56;;;;;;;2.58;2.10;;;;;;;26.23;36.51;98779.94;4992554;28;20054;-74
2023/08/19 03:23:23;;;;;;;5.00;2.03;;;;;;;26.23;36.43;98761.19;4993634;28;20045;-75
2023/08/19 03:25:49;;;;;;;6.70;2.40;;;;;;;26.29;36.27;98763.81;4992950;28;20026;-74
2023/08/19 03:28:15;;;;;;;4.25;2.00;;;;;;;26.28;36.00;98764.88;4976734;28;20026;-74
2023/08/19 03:30:40;;;;;;;5.97;2.15;;;;;;;26.29;36.02;98758.47;5009173;28;20520;-74
2023/08/19 03:33:06;;;;;;;4.55;2.20;;;;;;;26.28;36.05;98756.84;5009733;28;20038;-75
2023/08/19 03:35:33;;;;;;;5.65;2.15;;;;;;;26.32;36.05;98749.19;4993723;28;20049;-75
2023/08/19 03:37:59;;;;;;;2.95;1.90;;;;;;;26.44;36.25;98747.44;4992600;28;20081;-75
2023/08/19 03:40:25;;;;;;;4.50;2.00;;;;;;;26.51;35.75;98742.03;4976684;28;20038;-75
2023/08/19 03:42:50;;;;;;;2.83;1.75;;;;;;;26.54;35.54;98738.91;4992950;28;20093;-75
2023/08/19 03:45:16;;;;;;;6.38;2.00;;;;;;;26.57;35.62;98737.63;4994318;28;20034;-75
2023/08/19 03:47:41;;;;;;;5.50;2.10;;;;;;;26.62;35.50;98730.59;4976740;28;20201;-75
2023/08/19 03:50:07;;;;;;;2.58;1.80;;;;;;;26.65;35.88;98742.75;4992621;28;20038;-74
2023/08/19 03:52:32;;;;;;;6.43;2.08;;;;;;;26.68;35.44;98761.03;4992397;28;20038;-75
2023/08/19 03:54:58;;;;;;;6.32;1.95;;;;;;;26.69;35.54;98760.00;5008539;28;20040;-75
2023/08/19 03:57:23;;;;;;;4.13;1.80;;;;;;;26.76;35.25;98758.06;4992287;28;20038;-75
2023/08/19 03:59:50;;;;;;;5.50;2.03;;;;;;;26.76;35.55;98757.25;4976446;28;20043;-75
2023/08/19 04:02:16;;;;;;;2.90;2.15;;;;;;;26.79;35.24;98779.06;4976297;28;20411;-75
2023/08/19 04:05:01;;;;;;;3.65;2.22;;;;;;;26.84;35.31;98789.91;4993126;28;20113;-75
2023/08/19 04:07:26;;;;;;;5.25;2.33;;;;;;;26.88;35.49;98785.75;5007784;28;20509;-75
2023/08/19 04:09:53;;;;;;;6.72;2.00;;;;;;;26.97;35.22;98805.03;4975541;28;20042;-75
2023/08/19 04:12:19;;;;;;;4.53;2.08;;;;;;;27.05;35.08;98796.69;4991848;28;20081;-74
2023/08/19 04:14:45;;;;;;;5.88;2.10;;;;;;;27.11;34.80;98813.75;4992322;28;20062;-75
2023/08/19 04:17:10;;;;;;;5.07;2.42;;;;;;;27.19;34.75;98807.28;4992314;28;20484;-75
2023/08/19 04:19:37;;;;;;;6.45;2.05;;;;;;;27.21;34.82;98806.00;4991721;28;20033;-75
2023/08/19 04:22:03;;;;;;;5.90;2.00;;;;;;;27.24;35.45;98802.06;5008374;28;20065;-75
2023/08/19 04:24:28;;;;;;;6.15;2.20;;;;;;;27.25;35.31;98790.31;4991718;28;20069;-75
2023/08/19 04:26:54;;;;;;;4.78;2.30;;;;;;;27.24;35.33;98781.44;4976378;28;20046;-75
2023/08/19 04:29:19;;;;;;;3.00;1.95;;;;;;;27.27;35.27;98782.84;4992820;28;20054;-75
2023/08/19 04:31:45;;;;;;;6.72;2.10;;;;;;;27.26;35.72;98771.31;5008361;28;20038;-74
2023/08/19 04:34:10;;;;;;;10.02;2.30;;;;;;;27.31;36.19;98785.91;4992924;28;20041;-74
2023/08/19 04:36:36;;;;;;;2.60;1.90;;;;;;;27.32;36.14;98784.88;4992121;28;20085;-75
2023/08/19 04:39:01;;;;;;;3.53;2.03;;;;;;;27.43;36.21;98798.34;4966920;28;20038;-74
2023/08/19 04:41:27;;;;;;;5.00;2.20;;;;;;;27.54;35.66;98804.81;4991546;28;20042;-74
2023/08/19 04:43:52;;;;;;;7.85;2.00;;;;;;;27.64;35.41;98798.91;4990853;28;20030;-74
2023/08/19 04:46:18;;;;;;;3.78;2.08;;;;;;;28.71;33.82;98802.69;4992003;28;20038;-75
2023/08/19 04:48:43;;;;;;;4.45;1.85;;;;;;;28.72;33.93;98800.81;5007736;28;20031;-75
2023/08/19 04:51:09;;;;;;;4.38;2.20;;;;;;;29.28;32.72;98812.00;4991196;28;20073;-75
2023/08/19 04:53:35;;;;;;;4.18;2.10;;;;;;;30.70;30.84;98798.66;4992714;28;20045;-71
2023/08/19 04:56:04;;;;;;;18.70;2.22;;;;;;;31.95;29.97;98791.03;4992969;28;20481;-69
2023/08/19 04:58:29;;;;;;;7.25;1.83;;;;;;;33.10;28.33;98789.69;4975859;28;20585;-68
2023/08/19 05:00:55;;;;;;;9.40;1.80;;;;;;;34.10;26.39;98785.16;4990804;28;20042;-69
2023/08/19 05:03:21;;;;;;;7.40;1.55;;;;;;;35.06;25.25;98774.44;4973775;28;20038;-70
2023/08/19 05:05:46;;;;;;;6.13;1.50;;;;;;;34.62;25.55;98775.91;4990508;28;20041;-70
2023/08/19 05:08:12;;;;;;;5.90;1.80;;;;;;;34.08;26.37;98764.56;4991941;28;20034;-70
2023/08/19 05:10:37;;;;;;;6.57;2.00;;;;;;;34.77;25.56;98769.66;4991166;28;20053;-68
2023/08/19 05:13:03;;;;;;;5.75;1.60;;;;;;;35.49;24.53;98762.03;4990658;28;20128;-68
2023/08/19 05:15:28;;;;;;;3.47;1.50;;;;;;;35.86;24.04;98762.63;4992537;28;20018;-70
2023/08/19 05:17:54;;;;;;;6.03;1.80;;;;;;;36.37;23.64;98767.69;4974697;28;20041;-70
2023/08/19 05:20:19;;;;;;;4.57;1.80;;;;;;;36.50;23.39;98766.19;4991024;28;20027;-70
2023/08/19 05:22:45;;;;;;;2.30;1.50;;;;;;;35.78;24.29;98771.41;4990634;28;20122;-70
2023/08/19 05:25:10;;;;;;;3.38;1.40;;;;;;;35.21;25.37;98774.38;4974795;28;20026;-71
2023/08/19 05:27:36;;;;;;;5.72;1.70;;;;;;;34.80;25.63;98779.94;4987920;28;20062;-70
2023/08/19 05:30:04;;;;;;;5.85;1.95;;;;;;;34.82;25.59;98782.38;4987724;28;20072;-71
2023/08/19 05:32:30;;;;;;;4.00;1.50;;;;;;;35.87;24.51;98783.28;5006121;28;20053;-72
2023/08/19 05:34:55;;;;;;;10.13;1.60;;;;;;;36.24;23.98;98771.03;4973583;28;20026;-71
2023/08/19 05:37:21;;;;;;;3.88;1.73;;;;;;;36.92;23.09;98772.81;4991346;28;20034;-71
2023/08/19 05:39:47;;;;;;;5.55;1.67;;;;;;;37.74;22.25;98767.44;5010956;28;20393;-70
2023/08/19 05:42:12;;;;;;;3.15;1.60;;;;;;;38.07;22.43;98775.63;5009357;28;20041;-71
2023/08/19 05:44:38;;;;;;;8.00;1.80;;;;;;;37.99;22.17;98767.03;4993435;28;20071;-72
2023/08/19 05:47:03;;;;;;;3.70;1.60;;;;;;;37.62;23.02;98760.50;4993374;28;20076;-72
2023/08/19 05:49:29;;;;;;;5.90;1.90;;;;;;;37.15;23.46;98767.66;4980582;28;20129;-72
2023/08/19 05:51:55;;;;;;;6.57;1.60;;;;;;;36.70;23.81;98767.88;4989817;28;20030;-72
2023/08/19 05:54:20;;;;;;;2.95;1.70;;;;;;;36.15;24.34;98772.72;4998176;28;20030;-74
2023/08/19 05:56:46;;;;;;;2.17;1.38;;;;;;;35.67;24.92;98766.00;4989915;28;20508;-71
2023/08/19 05:59:11;;;;;;;6.00;1.75;;;;;;;35.26;25.49;98754.56;4973189;28;20035;-71
2023/08/19 06:01:37;;;;;;;4.65;1.98;;;;;;;34.90;26.11;98760.94;4957567;28;20039;-71
2023/08/19 06:04:03;;;;;;;6.15;2.08;;;;;;;34.76;26.09;98768.84;4973072;28;20850;-72
2023/08/19 06:06:28;;;;;;;3.45;1.75;;;;;;;34.76;26.38;98782.41;4973395;28;20481;-78
2023/08/19 06:08:54;;;;;;;6.63;2.03;;;;;;;35.46;24.84;98787.03;4973885;28;20030;-77
2023/08/19 06:11:21;;;;;;;3.97;1.70;;;;;;;36.45;24.02;98790.69;4989174;28;20039;-79
2023/08/19 06:13:46;;;;;;;4.88;1.70;;;;;;;36.83;23.79;98790.06;4990263;28;20050;-77
2023/08/19 06:16:12;;;;;;;3.88;1.63;;;;;;;36.91;23.79;98790.25;4973123;28;20038;-80
2023/08/19 06:18:38;;;;;;;4.82;1.80;;;;;;;37.61;23.18;98793.47;4973746;28;20077;-80
2023/08/19 06:21:04;;;;;;;6.70;1.80;;;;;;;38.56;22.47;98796.06;4958165;28;20035;-77
2023/08/19 06:23:29;;;;;;;12.25;1.80;;;;;;;39.26;21.80;98799.66;4958405;28;20282;-75
2023/08/19 06:25:55;;;;;;;8.70;1.73;;;;;;;39.64;21.43;98796.66;4976150;28;20034;-73
2023/08/19 06:28:23;;;;;;;7.35;1.65;;;;;;;40.10;21.35;98790.13;4975821;28;20026;-74
2023/08/19 06:30:49;;;;;;;4.25;1.60;;;;;;;40.57;20.76;98794.44;4990879;28;20069;-76
2023/08/19 06:33:15;;;;;;;11.57;1.70;;;;;;;41.23;19.71;98794.53;4992078;28;20412;-77
2023/08/19 06:35:41;;;;;;;5.63;1.58;;;;;;;41.79;18.96;98796.69;4966969;28;20030;-76
2023/08/19 06:38:19;;;;;;;5.22;1.75;;;;;;;42.24;18.79;98796.31;4953976;28;20478;-76
2023/08/19 06:40:57;;;;;;;10.85;1.80;;;;;;;42.50;18.12;98793.53;4976872;28;20042;-76
2023/08/19 06:43:25;;;;;;;6.97;1.42;;;;;;;42.64;17.88;98807.06;5008670;28;20073;-76
2023/08/19 06:45:50;;;;;;;6.25;1.90;;;;;;;42.56;18.38;98816.94;4976135;28;20453;-76
2023/08/19 06:48:16;;;;;;;2.63;1.45;;;;;;;41.52;19.36;98824.06;4974131;28;20027;-77
2023/08/19 06:50:42;;;;;;;5.10;1.60;;;;;;;40.66;19.22;98801.56;4990926;28;20042;-77
2023/08/19 06:53:10;;;;;;;6.72;1.88;;;;;;;40.10;20.17;98811.97;4974399;28;20030;-73
2023/08/19 06:55:42;;;;;;;14.85;2.40;;;;;;;39.38;22.09;98815.53;4991367;28;20096;-84
2023/08/19 06:58:10;;;;;;;11.20;2.00;;;;;;;38.47;21.91;98819.69;4985491;28;20040;-72
2023/08/19 07:00:36;;;;;;;10.43;2.13;;;;;;;37.78;23.26;98796.50;4992794;28;20088;-71
2023/08/19 07:03:02;;;;;;;11.25;2.00;;;;;;;37.31;23.57;98795.50;4975561;28;20041;-73
2023/08/19 07:05:28;;;;;;;14.00;2.30;;;;;;;36.85;24.59;98790.59;4991993;28;20030;-72
2023/08/19 07:07:54;;;;;;;6.90;2.00;;;;;;;36.44;25.12;98797.25;4993077;28;20042;-72
2023/08/19 07:10:20;;;;;;;12.20;2.05;;;;;;;36.08;24.81;98778.50;4975296;28;20033;-71
2023/08/19 07:12:46;;;;;;;12.27;2.13;;;;;;;35.79;25.64;98787.41;4991430;28;20113;-72
2023/08/19 07:15:12;;;;;;;7.68;2.10;;;;;;;35.51;25.76;98792.41;4991835;28;20035;-75
2023/08/19 07:17:43;;;;;;;6.35;1.70;;;;;;;35.22;26.68;98807.72;4993174;28;20125;-71
2023/08/19 07:20:09;;;;;;;10.68;1.90;;;;;;;34.97;26.97;98807.56;5010021;28;20033;-72
2023/08/19 07:22:34;;;;;;;6.15;1.95;;;;;;;34.77;27.38;98815.75;4977977;28;20464;-71
2023/08/19 07:25:00;;;;;;;3.72;1.75;;;;;;;34.58;28.01;98820.91;4977516;28;20027;-71
2023/08/19 07:27:25;;;;;;;7.18;2.25;;;;;;;34.45;28.46;98824.19;4994099;28;20050;-72
2023/08/19 07:29:51;;;;;;;11.20;2.00;;;;;;;34.28;28.79;98836.09;4977353;28;20037;-72
2023/08/19 07:32:19;;;;;;;7.88;2.03;;;;;;;34.12;28.58;98847.97;4977628;28;20077;-73
2023/08/19 07:34:44;;;;;;;10.88;2.50;;;;;;;33.99;29.36;98854.72;4994462;28;20028;-72
2023/08/19 07:37:10;;;;;;;6.95;1.90;;;;;;;33.84;29.31;98861.75;4993436;28;20049;-72
2023/08/19 07:39:36;;;;;;;5.13;2.08;;;;;;;33.69;29.99;98857.06;4994514;28;20118;-74
2023/08/19 07:42:02;;;;;;;7.57;2.10;;;;;;;33.57;29.79;98872.69;4977204;28;20469;-72
2023/08/19 07:44:27;;;;;;;9.05;2.20;;;;;;;33.45;29.42;98864.00;5009513;28;20105;-72
2023/08/19 07:46:53;;;;;;;5.28;1.98;;;;;;;33.33;29.54;98861.50;4976950;28;20034;-71
2023/08/19 07:49:18;;;;;;;6.10;2.00;;;;;;;33.19;29.09;98858.47;4993410;28;20464;-71
2023/08/19 07:51:43;;;;;;;6.15;1.95;;;;;;;33.17;29.17;98864.13;4976761;28;20026;-71
2023/08/19 07:54:09;;;;;;;4.95;1.98;;;;;;;33.05;29.22;98863.53;4976854;28;20057;-72
2023/08/19 07:56:34;;;;;;;9.05;2.58;;;;;;;33.03;28.88;98865.66;4977119;28;20034;-72
2023/08/19 07:59:00;;;;;;;3.78;2.00;;;;;;;33.05;29.38;98859.97;4994208;28;20030;-72
2023/08/19 08:01:25;;;;;;;6.25;2.42;;;;;;;33.02;29.62;98857.81;5009270;28;20053;-71
2023/08/19 08:03:51;;;;;;;8.57;2.50;;;;;;;32.94;28.67;98853.69;4961072;28;20050;-71
2023/08/19 08:06:16;;;;;;;7.47;2.22;;;;;;;32.99;29.87;98859.16;4977054;28;20041;-70
2023/08/19 08:08:42;;;;;;;6.05;2.00;;;;;;;33.00;29.50;98860.75;4976523;28;20371;-71
2023/08/19 08:11:07;;;;;;;6.70;2.38;;;;;;;32.92;29.32;98851.25;5008865;28;20050;-72
2023/08/19 08:13:33;;;;;;;11.80;2.55;;;;;;;32.89;29.63;98842.84;4976462;28;20038;-72
2023/08/19 08:15:59;;;;;;;7.95;2.75;;;;;;;32.89;29.55;98842.84;4976479;28;20034;-72
2023/08/19 08:18:25;;;;;;;6.45;2.22;;;;;;;32.91;29.94;98846.94;4976852;28;20033;-71
2023/08/19 08:20:50;;;;;;;8.65;2.20;;;;;;;32.90;29.53;98848.00;4992636;28;20030;-71
2023/08/19 08:23:16;;;;;;;9.75;2.42;;;;;;;32.84;29.02;98848.25;4992490;28;20493;-73
2023/08/19 08:25:41;;;;;;;2.92;2.05;;;;;;;32.85;29.49;98847.97;4992626;28;20069;-72
2023/08/19 08:28:06;;;;;;;8.35;2.30;;;;;;;32.86;29.19;98854.19;4976276;28;20035;-72
2023/08/19 08:30:32;;;;;;;7.57;2.30;;;;;;;32.85;29.01;98842.56;4976200;28;20049;-71
2023/08/19 08:32:58;;;;;;;11.73;2.20;;;;;;;32.89;28.85;98850.97;4992493;28;20494;-73
2023/08/19 08:35:23;;;;;;;10.55;2.15;;;;;;;32.99;29.21;98853.75;5008882;28;20051;-71
2023/08/19 08:37:49;;;;;;;6.13;2.30;;;;;;;33.36;27.89;98850.97;4992348;28;20374;-72
2023/08/19 08:40:14;;;;;;;6.53;2.28;;;;;;;33.85;27.83;98862.53;4993519;28;20031;-70
2023/08/19 08:42:40;;;;;;;8.07;2.35;;;;;;;34.05;27.68;98864.50;4992091;28;20114;-71
2023/08/19 08:45:06;;;;;;;7.72;2.30;;;;;;;34.09;28.45;98870.97;4975325;28;20034;-71
2023/08/19 08:47:31;;;;;;;7.30;2.13;;;;;;;34.20;28.19;98855.56;4960329;28;20042;-70
2023/08/19 08:49:58;;;;;;;9.07;2.40;;;;;;;34.28;28.08;98854.25;4992185;28;20038;-72
2023/08/19 08:52:24;;;;;;;12.98;2.50;;;;;;;34.41;28.24;98849.09;4976387;28;20481;-70
2023/08/19 08:54:53;;;;;;;9.32;2.40;;;;;;;34.51;27.79;98836.63;4992183;28;20038;-71
2023/08/19 08:57:19;;;;;;;8.52;2.53;;;;;;;34.66;27.57;98847.44;5008067;28;20026;-71
2023/08/19 08:59:45;;;;;;;6.95;2.20;;;;;;;34.71;27.84;98842.03;4975890;28;20088;-73
2023/08/19 09:02:11;;;;;;;11.25;2.15;;;;;;;34.78;27.96;98845.28;4976109;28;20402;-72
2023/08/19 09:04:37;;;;;;;15.75;2.33;;;;;;;34.82;27.38;98833.91;5008152;28;20045;-71
2023/08/19 09:07:10;;;;;;;8.43;2.30;;;;;;;34.88;27.40;98832.81;5008100;28;20019;-71
2023/08/19 09:09:36;;;;;;;7.03;2.17;;;;;;;35.00;27.28;98835.19;4975765;28;20031;-72
2023/08/19 09:12:03;;;;;;;4.20;2.20;;;;;;;35.13;26.59;98823.78;4991561;28;20058;-75
2023/08/19 09:14:40;;;;;;;3.90;1.73;;;;;;;35.30;26.10;98816.16;4991728;28;20054;-73
2023/08/19 09:17:06;;;;;;;4.03;1.98;;;;;;;35.61;25.85;98807.03;5008655;28;20213;-74
2023/08/19 09:19:31;;;;;;;5.07;2.00;;;;;;;35.78;25.19;98807.50;4975573;28;20037;-71
2023/08/19 09:21:57;;;;;;;4.97;1.70;;;;;;;36.45;24.86;98812.44;4991629;28;20030;-71
2023/08/19 09:24:23;;;;;;;5.75;2.03;;;;;;;36.94;24.15;98808.72;4991289;28;20034;-72
2023/08/19 09:26:55;;;;;;;6.28;2.20;;;;;;;37.33;23.46;98833.31;4991443;28;20473;-72
2023/08/19 09:29:22;;;;;;;6.93;2.15;;;;;;;37.56;22.73;98807.97;5008060;28;20022;-71
2023/08/19 09:31:53;;;;;;;3.90;2.03;;;;;;;37.87;22.19;98812.97;5008107;28;20030;-71
2023/08/19 09:34:19;;;;;;;3.40;2.00;;;;;;;38.09;21.92;98811.56;5007680;28;20092;-71
2023/08/19 09:36:44;;;;;;;4.32;1.75;;;;;;;38.34;21.56;98804.91;4991646;28;20042;-72
2023/08/19 09:39:10;;;;;;;5.03;1.92;;;;;;;38.54;20.96;98825.56;4975400;28;20058;-71
2023/08/19 09:41:36;;;;;;;5.00;1.80;;;;;;;38.46;20.84;98802.53;4991841;28;20046;-71
2023/08/19 09:44:01;;;;;;;3.60;2.00;;;;;;;38.48;20.66;98813.13;4975296;28;20054;-71
2023/08/19 09:46:34;;;;;;;5.93;1.92;;;;;;;38.43;20.73;98810.47;4991291;28;20042;-71
2023/08/19 09:48:59;;;;;;;6.10;1.90;;;;;;;38.50;20.47;98808.16;5007480;28;20034;-71
2023/08/19 09:51:26;;;;;;;4.10;1.90;;;;;;;38.49;20.94;98798.38;4991142;28;20096;-71
2023/08/19 09:53:51;;;;;;;3.35;1.90;;;;;;;38.55;20.85;98803.41;4991557;28;20073;-72
2023/08/19 09:56:21;;;;;;;6.78;2.10;;;;;;;38.63;20.97;98799.22;4991563;28;20118;-72
2023/08/19 09:58:49;;;;;;;8.85;2.22;;;;;;;38.63;21.04;98798.41;4978982;28;20034;-72
2023/08/19 10:01:14;;;;;;;4.85;2.28;;;;;;;38.66;20.96;98793.16;4995551;28;20042;-72
2023/08/19 10:03:40;;;;;;;8.68;2.22;;;;;;;38.67;21.32;98789.34;4995227;28;20037;-72
2023/08/19 10:06:06;;;;;;;5.70;1.92;;;;;;;38.69;21.34;98798.00;4995351;28;20492;-71
2023/08/19 10:08:31;;;;;;;3.65;2.17;;;;;;;38.68;21.41;98795.59;4978790;28;20022;-72
2023/08/19 10:10:56;;;;;;;5.40;2.30;;;;;;;38.64;21.31;98800.84;5011269;28;20493;-71
2023/08/19 10:13:22;;;;;;;3.03;1.85;;;;;;;38.57;21.16;98800.38;4995078;28;20137;-71
2023/08/19 10:15:47;;;;;;;5.25;2.00;;;;;;;38.51;21.64;98796.97;5011383;28;20070;-70
2023/08/19 10:18:24;;;;;;;3.38;1.90;;;;;;;38.45;21.60;98792.72;4978744;28;20471;-71
2023/08/19 10:20:54;;;;;;;4.87;1.93;;;;;;;38.39;21.66;98793.91;4978948;28;20030;-71
2023/08/19 10:23:20;;;;;;;9.15;2.40;;;;;;;38.35;21.87;98804.59;4978721;28;20026;-72
2023/08/19 10:25:45;;;;;;;4.47;1.95;;;;;;;38.32;22.02;98796.22;4994649;28;20030;-71
2023/08/19 10:28:24;;;;;;;8.00;2.15;;;;;;;38.30;22.41;98790.25;4994930;28;20026;-70
2023/08/19 10:31:08;;;;;;;5.20;2.20;;;;;;;38.16;21.79;98799.22;4994736;28;20030;-71
2023/08/19 10:33:47;;;;;;;4.43;1.75;;;;;;;38.06;21.11;98796.59;4996082;28;20042;-71
2023/08/19 10:36:17;;;;;;;3.33;2.15;;;;;;;37.90;21.32;98779.69;4980198;28;20401;-72
2023/08/19 10:38:45;;;;;;;4.78;2.00;;;;;;;37.84;21.16;98780.88;4978315;28;20034;-71
2023/08/19 10:41:38;;;;;;;2.92;2.00;;;;;;;37.77;21.26;98784.00;4995643;28;20169;-71
2023/08/19 10:44:07;;;;;;;6.70;1.90;;;;;;;37.68;21.79;98779.47;4994727;28;20044;-72
2023/08/19 10:46:34;;;;;;;3.10;1.70;;;;;;;37.57;21.84;98782.34;4994644;28;20034;-71
2023/08/19 10:49:05;;;;;;;4.70;1.80;;;;;;;37.42;21.46;98777.13;4994174;28;20081;-72
2023/08/19 10:52:07;;;;;;;4.15;2.00;;;;;;;37.24;22.08;98779.53;4995343;28;20034;-72
2023/08/19 10:54:43;;;;;;;6.03;2.00;;;;;;;37.24;21.99;98776.81;4994564;28;20160;-71
2023/08/19 10:57:17;;;;;;;3.20;2.00;;;;;;;37.18;22.39;98766.25;4979439;28;20030;-72
2023/08/19 10:59:44;;;;;;;4.35;1.80;;;;;;;37.14;22.28;98767.94;4995441;28;20026;-72
2023/08/19 11:02:10;;;;;;;;;;;;;;;36.97;22.60;98784.75;4994495;28;20136;-71
2023/08/19 11:04:43;;;;;;;3.33;2.17;;;;;;;36.90;22.49;98777.75;5026742;28;19917;-71
2023/08/19 11:07:09;;;;;;;4.22;1.98;;;;;;;36.78;22.96;98763.72;5010592;28;20392;-71
2023/08/19 11:09:34;;;;;;;4.20;2.17;;;;;;;36.68;22.83;98761.91;4976583;28;20030;-71
2023/08/19 11:12:00;;;;;;;4.80;1.80;;;;;;;36.68;22.39;98774.72;4977158;28;20057;-72
2023/08/19 11:14:26;;;;;;;3.95;1.95;;;;;;;36.66;22.45;98757.84;4977568;28;20026;-72
2023/08/19 11:16:52;;;;;;;4.72;1.75;;;;;;;36.55;22.50;98755.25;4993784;28;20397;-71
2023/08/19 11:19:18;;;;;;;6.10;2.05;;;;;;;36.47;22.18;98764.03;4977480;28;20516;-71
2023/08/19 11:21:43;;;;;;;4.22;1.98;;;;;;;36.34;22.18;98760.09;4977507;28;20141;-71
2023/08/19 11:24:09;;;;;;;4.38;1.80;;;;;;;36.14;22.65;98752.09;4993596;28;20070;-72
2023/08/19 11:26:41;;;;;;;4.50;1.90;;;;;;;36.11;22.57;98750.75;4994857;28;20031;-73
2023/08/19 11:29:07;;;;;;;4.78;2.17;;;;;;;36.11;22.52;98748.03;5009900;28;20465;-71
2023/08/19 11:31:33;;;;;;;5.32;2.20;;;;;;;36.09;22.75;98757.56;5010111;28;20066;-71